createdAt,value
2017-06-09T00:00:57.157Z,90.60
2017-06-09T00:03:25.500Z,90.60
2017-06-09T00:05:53.622Z,90.60
2017-06-09T00:08:21.725Z,90.70
2017-06-09T00:10:49.799Z,90.70
2017-06-09T00:13:17.909Z,90.80
2017-06-09T00:15:45.994Z,90.60
2017-06-09T00:18:14.105Z,90.50
2017-06-09T00:20:44.166Z,90.50
2017-06-09T00:23:13.046Z,90.60
2017-06-09T00:25:41.205Z,90.60
2017-06-09T00:28:09.309Z,90.60
2017-06-09T00:30:37.402Z,90.80
2017-06-09T00:33:06.932Z,90.80
2017-06-09T00:35:35.041Z,90.80
2017-06-09T00:38:03.251Z,90.90
2017-06-09T00:40:31.363Z,90.90
2017-06-09T00:43:00.252Z,91.20
2017-06-09T00:45:28.421Z,91.20
2017-06-09T00:47:56.514Z,91.10
2017-06-09T00:50:24.621Z,91.10
2017-06-09T00:52:52.751Z,91.20
2017-06-09T00:55:21.676Z,91.30
2017-06-09T00:57:55.426Z,91.10
2017-06-09T01:00:24.283Z,91.00
2017-06-09T01:02:52.387Z,91.00
2017-06-09T01:05:20.560Z,90.90
2017-06-09T01:07:48.687Z,90.80
2017-06-09T01:10:16.838Z,90.90
2017-06-09T01:12:44.951Z,91.10
2017-06-09T01:15:13.136Z,91.00
2017-06-09T01:17:41.206Z,90.90
2017-06-09T01:20:09.321Z,91.20
2017-06-09T01:22:37.456Z,91.00
2017-06-09T01:25:05.543Z,91.10
2017-06-09T01:27:33.688Z,91.20
2017-06-09T01:30:01.782Z,91.10
2017-06-09T01:32:30.656Z,91.50
2017-06-09T01:34:58.770Z,91.10
2017-06-09T01:37:26.913Z,91.20
2017-06-09T01:39:54.999Z,91.20
2017-06-09T01:42:23.094Z,91.00
2017-06-09T01:44:51.229Z,91.20
2017-06-09T01:47:19.338Z,90.70
2017-06-09T01:49:47.486Z,90.60
2017-06-09T01:52:15.578Z,90.50
2017-06-09T01:54:43.765Z,90.50
2017-06-09T01:57:11.902Z,90.50
2017-06-09T01:59:39.987Z,90.40
2017-06-09T02:02:08.096Z,90.40
2017-06-09T02:04:36.182Z,90.40
2017-06-09T02:07:04.314Z,90.40
2017-06-09T02:09:32.410Z,90.40
2017-06-09T02:12:00.543Z,90.40
2017-06-09T02:14:32.253Z,90.30
2017-06-09T02:17:00.399Z,90.40
2017-06-09T02:19:28.514Z,90.30
2017-06-09T02:21:57.431Z,90.30
2017-06-09T02:24:25.550Z,90.50
2017-06-09T02:26:54.412Z,90.10
2017-06-09T02:29:22.519Z,90.10
2017-06-09T02:31:50.651Z,90.20
2017-06-09T02:34:18.755Z,90.20
2017-06-09T02:36:46.880Z,90.20
2017-06-09T02:39:15.020Z,90.10
2017-06-09T02:41:43.116Z,90.10
2017-06-09T02:44:11.252Z,90.20
2017-06-09T02:46:39.375Z,90.20
2017-06-09T02:49:07.497Z,90.20
2017-06-09T02:51:35.628Z,90.10
2017-06-09T02:54:03.776Z,89.70
2017-06-09T02:56:31.960Z,89.60
2017-06-09T02:59:00.108Z,90.00
2017-06-09T03:01:28.331Z,90.10
2017-06-09T03:03:56.452Z,90.40
2017-06-09T03:06:24.643Z,90.50
2017-06-09T03:08:53.554Z,90.70
2017-06-09T03:11:21.641Z,90.70
2017-06-09T03:13:54.897Z,90.70
2017-06-09T03:16:23.088Z,90.70
2017-06-09T03:18:51.224Z,90.60
2017-06-09T03:21:19.369Z,90.50
2017-06-09T03:23:47.475Z,90.30
2017-06-09T03:26:15.572Z,90.10
2017-06-09T03:28:43.673Z,89.40
2017-06-09T03:31:12.546Z,87.10
2017-06-09T03:33:40.638Z,87.00
2017-06-09T03:36:08.769Z,86.40
2017-06-09T03:38:36.859Z,84.00
2017-06-09T03:41:05.002Z,82.60
2017-06-09T03:43:33.127Z,81.80
2017-06-09T03:46:01.259Z,81.40
2017-06-09T03:48:32.545Z,79.90
2017-06-09T03:51:17.380Z,78.90
2017-06-09T03:53:48.470Z,78.00
2017-06-09T03:56:16.579Z,77.60
2017-06-09T03:58:45.625Z,77.60
2017-06-09T04:01:14.492Z,77.20
2017-06-09T04:03:46.922Z,76.80
2017-06-09T04:06:15.028Z,75.60
2017-06-09T04:08:49.186Z,74.90
2017-06-09T04:11:17.300Z,74.80
2017-06-09T04:13:45.471Z,73.30
2017-06-09T04:16:13.679Z,72.80
2017-06-09T04:18:44.116Z,71.00
2017-06-09T04:21:12.251Z,71.00
2017-06-09T04:23:40.328Z,71.10
2017-06-09T04:26:09.189Z,70.20
2017-06-09T04:28:40.012Z,69.80
2017-06-09T04:31:08.118Z,69.80
2017-06-09T04:33:46.895Z,69.50
2017-06-09T04:36:15.042Z,67.70
2017-06-09T04:38:43.913Z,67.00
2017-06-09T04:41:13.769Z,67.00
2017-06-09T04:43:41.915Z,65.60
2017-06-09T04:46:10.129Z,63.30
2017-06-09T04:48:38.260Z,61.80
2017-06-09T04:51:07.145Z,58.50
2017-06-09T04:53:37.281Z,58.40
2017-06-09T04:56:05.395Z,58.20
2017-06-09T04:58:34.274Z,55.80
2017-06-09T05:01:03.185Z,55.50
2017-06-09T05:03:31.325Z,55.40
2017-06-09T05:06:02.490Z,54.50
2017-06-09T05:08:31.594Z,53.60
2017-06-09T05:11:00.476Z,53.70
2017-06-09T05:13:32.581Z,52.20
2017-06-09T05:16:00.717Z,52.20
2017-06-09T05:18:28.956Z,52.60
2017-06-09T05:21:03.638Z,55.00
2017-06-09T05:23:46.652Z,55.80
2017-06-09T05:26:15.649Z,56.80
2017-06-09T05:28:43.827Z,58.00
2017-06-09T05:31:12.160Z,58.50
2017-06-09T05:33:40.290Z,59.30
2017-06-09T05:36:08.433Z,59.30
2017-06-09T05:38:36.577Z,60.00
2017-06-09T05:41:04.770Z,60.70
2017-06-09T05:43:32.900Z,61.40
2017-06-09T05:46:01.102Z,61.60
2017-06-09T05:48:30.028Z,62.60
2017-06-09T05:50:59.059Z,62.50
2017-06-09T05:53:33.479Z,63.80
2017-06-09T05:56:01.586Z,63.80
2017-06-09T05:58:29.740Z,64.50
2017-06-09T06:00:57.880Z,64.70
2017-06-09T06:03:29.904Z,64.90
2017-06-09T06:05:58.095Z,65.20
2017-06-09T06:08:26.205Z,65.40
2017-06-09T06:10:55.112Z,65.80
2017-06-09T06:13:23.217Z,66.50
2017-06-09T06:15:56.045Z,66.60
2017-06-09T06:18:24.175Z,66.60
2017-06-09T06:20:52.294Z,66.80
2017-06-09T06:23:20.399Z,67.20
2017-06-09T06:25:48.582Z,67.50
2017-06-09T06:28:18.693Z,67.80
2017-06-09T06:30:46.797Z,67.90
2017-06-09T06:33:14.923Z,68.00
2017-06-09T06:35:43.054Z,68.10
2017-06-09T06:38:11.438Z,68.00
2017-06-09T06:40:39.526Z,67.80
2017-06-09T06:43:07.639Z,68.20
2017-06-09T06:45:35.750Z,68.10
2017-06-09T06:48:03.969Z,67.90
2017-06-09T06:50:32.127Z,67.80
2017-06-09T06:53:19.064Z,68.10
2017-06-09T06:55:47.199Z,68.00
2017-06-09T06:58:15.325Z,67.80
2017-06-09T07:00:43.447Z,67.50
2017-06-09T07:03:12.051Z,66.80
2017-06-09T07:05:40.329Z,66.60
2017-06-09T07:08:09.190Z,65.40
2017-06-09T07:10:37.373Z,65.20
2017-06-09T07:13:06.239Z,64.60
2017-06-09T07:15:34.414Z,63.90
2017-06-09T07:18:03.332Z,63.40
2017-06-09T07:23:31.051Z,61.70
2017-06-09T07:25:59.207Z,61.30
2017-06-09T07:28:27.520Z,60.80
2017-06-09T07:30:56.685Z,61.10
2017-06-09T07:33:25.283Z,60.80
2017-06-09T07:35:56.107Z,61.50
2017-06-09T07:38:24.205Z,61.40
2017-06-09T07:40:53.317Z,61.30
2017-06-09T07:43:22.398Z,61.10
2017-06-09T07:45:50.508Z,61.10
2017-06-09T07:48:19.502Z,61.70
2017-06-09T07:50:51.594Z,61.90
2017-06-09T07:53:20.466Z,61.00
2017-06-09T07:55:48.593Z,61.00
2017-06-09T07:58:28.255Z,60.20
2017-06-09T08:00:57.123Z,59.20
2017-06-09T08:03:25.214Z,59.10
2017-06-09T08:05:53.360Z,58.50
2017-06-09T08:08:21.575Z,57.30
2017-06-09T08:10:49.736Z,56.90
2017-06-09T08:13:22.307Z,56.90
2017-06-09T08:15:50.481Z,56.20
2017-06-09T08:18:18.619Z,55.60
2017-06-09T08:20:46.731Z,55.00
2017-06-09T08:23:20.690Z,55.30
2017-06-09T08:25:48.887Z,55.80
2017-06-09T08:28:17.046Z,56.30
2017-06-09T08:30:45.264Z,56.20
2017-06-09T08:33:13.419Z,56.20
2017-06-09T08:35:41.490Z,56.40
2017-06-09T08:38:09.640Z,56.70
2017-06-09T08:40:37.765Z,57.00
2017-06-09T08:43:12.576Z,56.40
2017-06-09T08:45:40.667Z,56.90
2017-06-09T08:48:08.787Z,57.00
2017-06-09T08:50:42.895Z,56.90
2017-06-09T08:53:11.016Z,57.20
2017-06-09T08:55:39.239Z,57.50
2017-06-09T08:58:07.396Z,57.70
2017-06-09T09:00:35.573Z,57.10
2017-06-09T09:03:03.691Z,56.70
2017-06-09T09:05:31.928Z,56.50
2017-06-09T09:08:05.099Z,56.40
2017-06-09T09:10:35.377Z,56.20
2017-06-09T09:13:03.523Z,56.30
2017-06-09T09:15:31.731Z,55.80
2017-06-09T09:17:59.959Z,55.50
2017-06-09T09:20:28.161Z,55.00
2017-06-09T09:22:57.673Z,54.60
2017-06-09T09:25:30.296Z,54.50
2017-06-09T09:28:10.593Z,54.70
2017-06-09T09:30:39.658Z,55.10
2017-06-09T09:33:15.232Z,55.30
2017-06-09T09:35:43.386Z,56.10
2017-06-09T09:38:12.469Z,56.10
2017-06-09T09:40:41.351Z,56.10
2017-06-09T09:43:09.475Z,55.60
2017-06-09T09:45:37.673Z,54.90
2017-06-09T09:48:05.747Z,54.50
2017-06-09T09:50:34.635Z,52.60
2017-06-09T09:53:02.763Z,52.50
2017-06-09T09:55:38.470Z,51.10
2017-06-09T09:58:06.593Z,51.10
2017-06-09T10:00:44.872Z,50.70
2017-06-09T10:03:12.987Z,50.30
2017-06-09T10:05:41.102Z,50.00
2017-06-09T10:08:09.225Z,49.70
2017-06-09T10:10:37.494Z,49.60
2017-06-09T10:13:05.683Z,48.40
2017-06-09T10:15:33.828Z,48.10
2017-06-09T10:18:02.660Z,48.80
2017-06-09T10:20:31.876Z,49.10
2017-06-09T10:23:00.023Z,48.70
2017-06-09T10:25:38.569Z,48.70
2017-06-09T10:28:08.559Z,48.60
2017-06-09T10:30:38.004Z,48.90
2017-06-09T10:33:06.121Z,48.40
2017-06-09T10:35:34.259Z,47.70
2017-06-09T10:38:02.360Z,47.70
2017-06-09T10:40:30.611Z,46.80
2017-06-09T10:42:58.731Z,45.50
2017-06-09T10:45:26.850Z,44.60
2017-06-09T10:47:54.983Z,44.10
2017-06-09T10:50:23.159Z,43.60
2017-06-09T10:52:53.076Z,44.30
2017-06-09T10:58:14.923Z,45.20
2017-06-09T11:00:43.159Z,45.20
2017-06-09T11:03:11.348Z,45.40
2017-06-09T11:05:40.284Z,45.50
2017-06-09T11:08:09.565Z,45.70
2017-06-09T11:10:37.698Z,46.20
2017-06-09T11:13:05.913Z,46.40
2017-06-09T11:15:34.090Z,46.20
2017-06-09T11:18:02.354Z,47.00
2017-06-09T11:20:30.520Z,47.20
2017-06-09T11:22:58.649Z,47.50
2017-06-09T11:25:26.810Z,47.50
2017-06-09T11:27:55.558Z,47.40
2017-06-09T11:30:23.823Z,47.50
2017-06-09T11:32:51.965Z,47.70
2017-06-09T11:35:32.398Z,48.00
2017-06-09T11:38:00.522Z,48.10
2017-06-09T11:43:29.398Z,48.20
2017-06-09T11:45:58.475Z,48.20
2017-06-09T11:48:26.588Z,48.10
2017-06-09T11:50:54.686Z,48.10
2017-06-09T11:53:22.798Z,48.30
2017-06-09T11:55:50.976Z,48.40
2017-06-09T11:58:19.121Z,48.40
2017-06-09T12:00:47.243Z,48.50
2017-06-09T12:03:15.366Z,48.60
2017-06-09T12:05:43.517Z,48.70
2017-06-09T12:08:11.625Z,48.40
2017-06-09T12:10:45.425Z,48.50
2017-06-09T12:13:13.566Z,48.50
2017-06-09T12:15:41.687Z,48.60
2017-06-09T12:18:09.813Z,48.40
2017-06-09T12:20:37.958Z,48.40
2017-06-09T12:23:06.061Z,48.20
2017-06-09T12:25:34.247Z,48.10
2017-06-09T12:28:02.449Z,47.90
2017-06-09T12:30:30.565Z,47.70
2017-06-09T12:33:01.536Z,47.80
2017-06-09T12:35:30.479Z,47.30
2017-06-09T12:37:58.771Z,47.30
2017-06-09T12:40:38.601Z,47.40
2017-06-09T12:43:06.841Z,47.10
2017-06-09T12:45:35.995Z,46.40
2017-06-09T12:48:04.124Z,46.00
2017-06-09T12:50:32.377Z,45.90
2017-06-09T12:53:00.614Z,45.20
2017-06-09T12:55:28.722Z,44.90
2017-06-09T12:57:56.836Z,44.80
2017-06-09T13:00:25.042Z,44.30
2017-06-09T13:02:59.178Z,41.70
2017-06-09T13:05:34.710Z,41.10
2017-06-09T13:08:04.726Z,39.20
2017-06-09T13:10:32.838Z,38.80
2017-06-09T13:13:00.946Z,39.70
2017-06-09T13:15:29.094Z,40.40
2017-06-09T13:17:57.257Z,41.40
2017-06-09T13:20:36.338Z,42.80
2017-06-09T13:23:05.441Z,48.80
2017-06-09T13:25:33.529Z,53.20
2017-06-09T13:28:03.593Z,54.70
2017-06-09T13:30:31.784Z,55.70
2017-06-09T13:33:00.954Z,56.20
2017-06-09T13:35:31.116Z,56.20
2017-06-09T13:38:06.879Z,56.30
2017-06-09T13:40:35.647Z,56.30
2017-06-09T13:43:03.789Z,56.00
2017-06-09T13:45:31.893Z,56.20
2017-06-09T13:48:00.045Z,56.50
2017-06-09T13:50:28.143Z,56.30
2017-06-09T13:52:56.302Z,57.00
2017-06-09T13:55:24.409Z,58.80
2017-06-09T13:57:56.264Z,60.10
2017-06-09T14:00:24.418Z,60.10
2017-06-09T14:02:58.299Z,59.90
2017-06-09T14:05:26.421Z,61.10
2017-06-09T14:07:55.672Z,62.80
2017-06-09T14:10:31.742Z,65.50
2017-06-09T14:12:59.926Z,66.80
2017-06-09T14:15:28.216Z,69.50
2017-06-09T14:18:01.869Z,72.20
2017-06-09T14:20:30.949Z,72.80
2017-06-09T14:22:59.054Z,74.80
2017-06-09T14:25:28.104Z,75.60
2017-06-09T14:27:56.263Z,79.00
2017-06-09T14:30:24.421Z,83.10
2017-06-09T14:32:52.546Z,83.70
2017-06-09T14:35:23.933Z,87.80
2017-06-09T14:37:52.134Z,88.90
2017-06-09T14:40:20.251Z,89.90
2017-06-09T14:42:48.387Z,90.30
2017-06-09T14:45:22.243Z,91.10
2017-06-09T14:47:50.386Z,91.50
2017-06-09T14:50:18.507Z,91.70
2017-06-09T14:52:47.539Z,92.80
2017-06-09T14:55:17.402Z,93.30
2017-06-09T14:57:45.517Z,94.00
2017-06-09T15:00:13.756Z,93.80
2017-06-09T15:02:41.923Z,93.90
2017-06-09T15:05:15.428Z,94.20
2017-06-09T15:07:43.534Z,93.40
2017-06-09T15:10:13.587Z,93.10
2017-06-09T15:12:42.554Z,93.70
2017-06-09T15:15:10.754Z,93.60
2017-06-09T15:17:38.856Z,93.60
2017-06-09T15:20:08.938Z,93.90
2017-06-09T15:22:37.111Z,94.30
2017-06-09T15:25:05.244Z,94.60
2017-06-09T15:27:45.943Z,94.50
2017-06-09T15:30:14.952Z,94.80
2017-06-09T15:32:43.168Z,95.00
2017-06-09T15:35:11.484Z,94.70
2017-06-09T15:37:39.606Z,95.20
2017-06-09T15:40:07.722Z,95.00
2017-06-09T15:42:35.866Z,95.50
2017-06-09T15:45:06.145Z,95.90
2017-06-09T15:47:34.886Z,96.40
2017-06-09T15:50:03.014Z,96.50
2017-06-09T15:52:36.914Z,96.80
2017-06-09T15:55:05.162Z,96.80
2017-06-09T15:57:33.242Z,97.20
2017-06-09T16:00:01.339Z,97.10
2017-06-09T16:02:29.460Z,97.30
2017-06-09T16:05:03.230Z,97.60
2017-06-09T16:07:31.354Z,97.50
2017-06-09T16:10:01.457Z,97.50
2017-06-09T16:12:34.057Z,95.40
2017-06-09T16:15:02.165Z,96.20
2017-06-09T16:17:30.369Z,97.00
2017-06-09T16:19:58.491Z,97.10
2017-06-09T16:22:26.609Z,97.60
2017-06-09T16:24:54.732Z,96.70
2017-06-09T16:27:22.886Z,96.60
2017-06-09T16:29:51.542Z,96.60
2017-06-09T16:32:19.653Z,96.60
2017-06-09T16:34:47.762Z,96.30
2017-06-09T16:37:24.210Z,96.00
2017-06-09T16:39:54.083Z,95.10
2017-06-09T16:42:22.236Z,94.50
2017-06-09T16:44:50.395Z,94.20
2017-06-09T16:47:18.620Z,93.60
2017-06-09T16:49:55.236Z,93.40
2017-06-09T16:52:23.466Z,93.40
2017-06-09T16:54:51.697Z,93.20
2017-06-09T16:57:21.819Z,92.50
2017-06-09T16:59:49.960Z,92.30
2017-06-09T17:02:19.117Z,91.60
2017-06-09T17:04:47.267Z,91.40
2017-06-09T17:07:15.440Z,91.40
2017-06-09T17:09:43.612Z,91.80
2017-06-09T17:12:12.083Z,92.00
2017-06-09T17:14:40.187Z,91.90
2017-06-09T17:17:08.339Z,91.00
2017-06-09T17:19:36.462Z,91.40
2017-06-09T17:22:04.601Z,91.30
2017-06-09T17:24:38.788Z,91.90
2017-06-09T17:27:06.959Z,91.70
2017-06-09T17:29:42.097Z,91.60
2017-06-09T17:32:12.164Z,90.90
2017-06-09T17:34:40.355Z,90.80
2017-06-09T17:37:08.482Z,90.10
2017-06-09T17:39:36.624Z,90.10
2017-06-09T17:42:04.749Z,90.10
2017-06-09T17:44:32.970Z,89.70
2017-06-09T17:47:01.099Z,90.00
2017-06-09T17:49:29.243Z,89.20
2017-06-09T17:51:57.364Z,88.60
2017-06-09T17:54:25.586Z,89.20
2017-06-09T17:56:54.689Z,86.90
2017-06-09T17:59:32.976Z,84.40
2017-06-09T18:02:01.095Z,84.60
2017-06-09T18:04:29.208Z,84.00
2017-06-09T18:06:57.356Z,84.40
2017-06-09T18:09:25.597Z,84.30
2017-06-09T18:11:53.733Z,84.10
2017-06-09T18:14:21.859Z,85.20
2017-06-09T18:16:49.989Z,86.00
2017-06-09T18:19:20.104Z,85.40
2017-06-09T18:21:52.737Z,86.90
2017-06-09T18:24:33.033Z,86.80
2017-06-09T18:27:04.816Z,86.00
2017-06-09T18:29:32.927Z,87.80
2017-06-09T18:32:03.055Z,88.40
2017-06-09T18:34:33.159Z,90.30
2017-06-09T18:37:20.906Z,91.20
2017-06-09T18:39:49.102Z,91.30
2017-06-09T18:42:17.207Z,91.60
2017-06-09T18:44:45.338Z,91.40
2017-06-09T18:47:13.545Z,91.70
2017-06-09T18:49:52.593Z,92.00
2017-06-09T18:52:20.745Z,92.70
2017-06-09T18:54:49.048Z,92.60
2017-06-09T18:57:18.032Z,92.40
2017-06-09T18:59:51.345Z,92.30
2017-06-09T19:02:19.616Z,92.50
2017-06-09T19:04:48.740Z,93.10
2017-06-09T19:07:19.713Z,93.70
2017-06-09T19:09:54.220Z,93.00
2017-06-09T19:12:22.700Z,93.20
2017-06-09T19:14:51.832Z,92.80
2017-06-09T19:17:27.520Z,91.90
2017-06-09T19:19:55.772Z,91.20
2017-06-09T19:22:25.108Z,90.70
2017-06-09T19:24:54.600Z,90.50
2017-06-09T19:27:22.731Z,89.90
2017-06-09T19:29:50.854Z,89.40
2017-06-09T19:32:24.369Z,90.00
2017-06-09T19:34:52.874Z,90.00
2017-06-09T19:37:22.830Z,90.70
2017-06-09T19:39:51.044Z,90.80
2017-06-09T19:42:19.191Z,91.10
2017-06-09T19:44:47.365Z,91.40
2017-06-09T19:47:15.478Z,91.10
2017-06-09T19:49:43.655Z,91.60
2017-06-09T19:52:15.608Z,91.70
2017-06-09T19:54:44.648Z,92.00
2017-06-09T19:57:12.738Z,92.10
2017-06-09T19:59:55.706Z,92.70
2017-06-09T20:02:23.806Z,92.60
2017-06-09T20:04:52.665Z,92.40
2017-06-09T20:07:25.619Z,92.50
2017-06-09T20:09:54.672Z,92.60
2017-06-09T20:12:22.804Z,92.20
2017-06-09T20:14:50.919Z,92.40
2017-06-09T20:17:19.024Z,91.80
2017-06-09T20:19:47.158Z,91.90
2017-06-09T20:22:15.264Z,91.80
2017-06-09T20:24:43.472Z,92.10
2017-06-09T20:27:11.643Z,91.70
2017-06-09T20:29:39.736Z,91.70
2017-06-09T20:32:12.516Z,91.50
2017-06-09T20:34:40.627Z,91.50
2017-06-09T20:37:08.746Z,91.20
2017-06-09T20:39:36.921Z,91.40
2017-06-09T20:42:05.056Z,91.50
2017-06-09T20:44:39.614Z,91.60
2017-06-09T20:47:07.734Z,91.90
2017-06-09T20:49:35.849Z,92.30
2017-06-09T20:52:22.135Z,92.40
2017-06-09T20:54:50.342Z,92.50
2017-06-09T20:57:18.464Z,92.80
2017-06-09T20:59:46.589Z,92.40
2017-06-09T21:02:14.735Z,92.30
2017-06-09T21:04:42.887Z,92.10
2017-06-09T21:10:10.771Z,91.90
2017-06-09T21:12:44.041Z,91.80
2017-06-09T21:15:12.606Z,91.90
2017-06-09T21:17:40.732Z,91.90
2017-06-09T21:20:08.856Z,92.00
2017-06-09T21:25:43.522Z,92.10
2017-06-09T21:28:11.634Z,92.30
2017-06-09T21:30:40.887Z,92.30
2017-06-09T21:33:23.699Z,92.40
2017-06-09T21:35:51.822Z,92.70
2017-06-09T21:38:19.927Z,93.00
2017-06-09T21:40:48.031Z,93.10
2017-06-09T21:43:16.221Z,93.30
2017-06-09T21:45:44.373Z,93.50
2017-06-09T21:48:15.432Z,93.50
2017-06-09T21:50:51.850Z,93.80
2017-06-09T21:53:21.682Z,93.90
2017-06-09T21:55:51.309Z,93.90
2017-06-09T21:58:22.751Z,94.20
2017-06-09T22:00:53.745Z,94.40
2017-06-09T22:06:06.469Z,93.70
2017-06-09T22:08:34.714Z,93.90
2017-06-09T22:11:04.802Z,93.60
2017-06-09T22:13:33.958Z,93.60
2017-06-09T22:16:02.059Z,93.50
2017-06-09T22:18:30.166Z,93.20
2017-06-09T22:21:00.141Z,93.30
2017-06-09T22:23:29.191Z,93.40
2017-06-09T22:25:57.414Z,93.60
2017-06-09T22:28:25.954Z,93.70
2017-06-09T22:30:54.125Z,93.60
2017-06-09T22:33:22.301Z,93.60
2017-06-09T22:35:50.480Z,93.40
2017-06-09T22:38:18.600Z,93.50
2017-06-09T22:40:46.858Z,93.80
2017-06-09T22:43:15.033Z,93.90
2017-06-09T22:45:43.132Z,94.00
2017-06-09T22:48:11.239Z,94.00
2017-06-09T22:50:39.737Z,94.00
2017-06-09T22:53:07.886Z,94.10
2017-06-09T22:55:35.974Z,94.10
2017-06-09T22:58:04.090Z,94.10
2017-06-09T23:00:32.191Z,94.20
2017-06-09T23:03:00.327Z,94.20
2017-06-09T23:05:28.431Z,94.40
2017-06-09T23:07:56.549Z,93.90
2017-06-09T23:10:24.655Z,93.90
2017-06-09T23:12:52.759Z,93.80
2017-06-09T23:15:20.880Z,93.60
2017-06-09T23:17:48.999Z,93.40
2017-06-09T23:20:17.123Z,93.40
2017-06-09T23:22:50.896Z,93.10
2017-06-09T23:25:18.999Z,93.00
2017-06-09T23:27:47.128Z,93.00
2017-06-09T23:30:15.260Z,93.20
2017-06-09T23:32:43.368Z,93.00
2017-06-09T23:35:17.127Z,93.00
2017-06-09T23:37:45.236Z,92.80
2017-06-09T23:40:13.359Z,92.50
2017-06-09T23:42:41.481Z,92.50
2017-06-09T23:45:09.586Z,92.50
2017-06-09T23:47:37.685Z,92.50
2017-06-09T23:50:06.024Z,92.60
2017-06-09T23:52:34.184Z,92.50
2017-06-09T23:55:02.293Z,92.60
2017-06-09T23:57:30.410Z,92.60
2017-06-09T23:59:58.526Z,92.50
